Time;durP1;ratioP1;P1;durP2;ratioP2;P2;SDS_P1;SDS_P2;PMS_P1;PMS_P2;Temp;Humidity;BMP_temperature;BMP_pressure;BME280_temperature;BME280_humidity;BME280_pressure;Samples;Min_cycle;Max_cycle;Signal;HPM_P1;HPM_P2
2022/08/16 00:00:10;;;;;;;14.13;11.88;;;;;;;21.68;83.87;69180.97;4908951;29;20091;-79
2022/08/16 00:02:35;;;;;;;17.17;12.48;;;;;;;;;;4908651;29;20047;-79
2022/08/16 00:05:02;;;;;;;13.57;11.70;;;;;;;21.50;85.69;69166.38;4906911;29;20047;-78
2022/08/16 00:07:28;;;;;;;15.13;12.27;;;;;;;;;;4892079;29;20500;-78
2022/08/16 00:09:53;;;;;;;15.18;12.70;;;;;;;21.36;85.84;69144.91;4908360;29;20067;-78
2022/08/16 00:12:19;;;;;;;17.40;12.80;;;;;;;21.35;86.26;69144.34;4910610;29;20431;-79
2022/08/16 00:14:44;;;;;;;15.27;13.65;;;;;;;;;;4908219;29;20040;-78
2022/08/16 00:17:09;;;;;;;18.67;13.23;;;;;;;21.27;87.07;69134.63;4910358;29;20123;-78
2022/08/16 00:19:35;;;;;;;20.10;13.43;;;;;;;;;;4908247;29;20072;-79
2022/08/16 00:22:00;;;;;;;17.33;13.38;;;;;;;21.19;87.38;69126.03;4910578;29;20056;-78
2022/08/16 00:24:27;;;;;;;16.70;13.68;;;;;;;;;;4909554;29;20048;-78
2022/08/16 00:26:52;;;;;;;16.70;14.07;;;;;;;;;;4909959;29;20044;-78
2022/08/16 00:29:18;;;;;;;15.52;13.85;;;;;;;21.14;88.23;69125.72;4908973;29;20040;-78
2022/08/16 00:31:46;;;;;;;15.60;14.00;;;;;;;21.06;89.35;69111.72;4908539;29;20047;-81
2022/08/16 00:34:12;;;;;;;16.10;14.40;;;;;;;21.05;89.41;69116.00;4908781;29;20051;-80
2022/08/16 00:36:37;;;;;;;18.05;14.73;;;;;;;21.02;89.85;69106.56;4909877;29;20720;-79
2022/08/16 00:39:03;;;;;;;17.58;14.43;;;;;;;;;;4908829;29;20052;-79
2022/08/16 00:41:29;;;;;;;17.40;14.75;;;;;;;;;;4893477;29;20059;-78
2022/08/16 00:43:54;;;;;;;17.70;14.48;;;;;;;;;;4910458;29;29536;-79
2022/08/16 00:46:38;;;;;;;17.13;14.43;;;;;;;20.93;89.48;69094.72;4907623;29;20680;-80
2022/08/16 00:49:07;;;;;;;16.33;13.95;;;;;;;20.89;89.79;69090.16;4907885;29;20324;-79
2022/08/16 00:51:32;;;;;;;;;;;;;;;20.88;89.21;69097.09;4914944;29;20036;-80
2022/08/16 00:53:57;;;;;;;15.63;13.93;;;;;;;20.83;89.59;69083.28;4911180;29;19915;-78
2022/08/16 00:56:29;;;;;;;16.80;14.18;;;;;;;20.82;88.91;69084.84;4911748;29;20048;-79
2022/08/16 00:58:54;;;;;;;17.52;13.43;;;;;;;;;;4912494;29;20437;-80
2022/08/16 01:01:20;;;;;;;15.85;13.13;;;;;;;20.92;87.88;69101.13;4913554;29;20055;-78
2022/08/16 01:03:48;;;;;;;13.85;12.25;;;;;;;;;;4914024;29;20083;-79
2022/08/16 01:06:17;;;;;;;16.40;13.00;;;;;;;20.96;87.02;69100.84;4911111;29;20504;-78
2022/08/16 01:08:45;;;;;;;15.82;12.50;;;;;;;21.01;86.41;69111.41;4910143;29;20826;-79
2022/08/16 01:11:10;;;;;;;17.30;13.38;;;;;;;;;;4914114;29;20036;-78
2022/08/16 01:13:36;;;;;;;15.82;14.10;;;;;;;;;;4911809;29;20047;-78
2022/08/16 01:16:06;;;;;;;16.30;12.68;;;;;;;20.96;86.24;69100.84;4912845;29;20095;-78
2022/08/16 01:18:33;;;;;;;18.60;14.02;;;;;;;;;;4910575;29;20420;-80
2022/08/16 01:21:23;;;;;;;20.98;14.23;;;;;;;20.99;85.46;69103.16;4912972;29;20556;-82
2022/08/16 01:23:51;;;;;;;17.75;14.40;;;;;;;21.00;84.89;69110.25;4907359;29;20059;-78
2022/08/16 01:26:16;;;;;;;18.50;14.73;;;;;;;;;;4912254;29;20044;-78
2022/08/16 01:28:43;;;;;;;18.35;15.05;;;;;;;20.95;85.47;69099.72;4912781;29;20096;-79
2022/08/16 01:31:11;;;;;;;16.65;14.32;;;;;;;21.00;85.02;69104.28;4913986;29;20055;-78
2022/08/16 01:33:36;;;;;;;19.73;14.55;;;;;;;20.98;85.13;69099.31;4909851;29;20095;-80
2022/08/16 01:36:06;;;;;;;16.27;14.45;;;;;;;20.93;85.45;69097.41;4913053;29;20047;-79
2022/08/16 01:38:34;;;;;;;17.25;14.52;;;;;;;20.89;85.64;69097.69;4911317;29;20216;-78
2022/08/16 01:41:04;;;;;;;18.02;14.82;;;;;;;;;;4909451;29;20078;-78
2022/08/16 01:43:32;;;;;;;17.05;14.82;;;;;;;20.84;85.37;69083.84;4910900;29;20133;-80
2022/08/16 01:46:00;;;;;;;19.80;15.38;;;;;;;20.84;85.43;69092.53;4907359;29;20115;-78
2022/08/16 01:48:30;;;;;;;18.25;14.43;;;;;;;20.80;85.01;69082.56;4895233;29;20048;-79
2022/08/16 01:50:57;;;;;;;18.00;14.45;;;;;;;20.82;84.70;69090.25;4912294;29;20071;-78
2022/08/16 01:53:22;;;;;;;14.77;13.07;;;;;;;20.84;84.90;69086.56;4912101;29;20044;-78
2022/08/16 01:55:49;;;;;;;16.35;14.40;;;;;;;20.79;84.63;69081.41;4911020;29;20048;-78
2022/08/16 01:58:15;;;;;;;17.77;13.23;;;;;;;;;;4911014;29;20048;-77
2022/08/16 02:00:40;;;;;;;15.43;13.60;;;;;;;;;;4910816;29;20048;-78
2022/08/16 02:03:06;;;;;;;14.67;12.73;;;;;;;20.73;84.18;69072.41;4911434;29;20074;-78
2022/08/16 02:05:31;;;;;;;16.23;14.07;;;;;;;20.77;84.11;69084.53;4908964;29;20379;-78
2022/08/16 02:07:57;;;;;;;17.95;14.02;;;;;;;20.78;83.92;69085.13;4909524;29;20040;-78
2022/08/16 02:10:23;;;;;;;16.73;13.73;;;;;;;20.77;84.21;69078.53;4911082;29;20047;-78
2022/08/16 02:12:48;;;;;;;16.75;14.13;;;;;;;20.81;83.22;69083.69;4912943;29;20044;-79
2022/08/16 02:15:15;;;;;;;17.42;14.32;;;;;;;20.80;83.77;69082.56;4911625;29;20520;-80
2022/08/16 02:17:41;;;;;;;18.33;14.73;;;;;;;20.76;83.60;69077.97;4910511;29;20048;-79
2022/08/16 02:20:07;;;;;;;16.23;14.52;;;;;;;;;;4908527;29;20040;-79
2022/08/16 02:22:32;;;;;;;18.25;14.40;;;;;;;;;;4909959;29;20086;-79
2022/08/16 02:24:58;;;;;;;16.95;13.32;;;;;;;20.74;83.61;69075.69;4910436;29;20380;-79
2022/08/16 02:27:23;;;;;;;15.30;12.75;;;;;;;;;;4912532;29;20032;-79
2022/08/16 02:29:48;;;;;;;18.30;13.20;;;;;;;;;;4909111;29;20494;-79
2022/08/16 02:32:15;;;;;;;16.53;13.60;;;;;;;;;;4912351;29;20036;-78
2022/08/16 02:34:40;;;;;;;15.20;13.50;;;;;;;20.59;84.47;69058.53;4894321;29;20443;-78
2022/08/16 02:37:06;;;;;;;16.00;12.73;;;;;;;20.49;84.88;69048.22;4909794;29;20540;-79
2022/08/16 02:39:31;;;;;;;15.85;13.55;;;;;;;20.49;85.10;69047.66;4894897;29;20444;-78
2022/08/16 02:41:56;;;;;;;18.40;14.05;;;;;;;20.45;85.02;69043.63;4893223;29;20051;-78
2022/08/16 02:44:22;;;;;;;17.77;14.90;;;;;;;20.40;85.66;69034.66;4909751;29;20061;-79
2022/08/16 02:46:48;;;;;;;18.45;14.23;;;;;;;20.33;86.69;69026.66;4907144;29;20063;-78
2022/08/16 02:49:14;;;;;;;16.20;14.23;;;;;;;20.31;86.12;69027.63;4911959;29;20082;-78
2022/08/16 02:51:40;;;;;;;18.40;15.15;;;;;;;;;;4909859;29;20654;-79
2022/08/16 02:54:07;;;;;;;16.92;14.10;;;;;;;20.32;85.49;69026.09;4911311;29;20571;-80
2022/08/16 02:56:33;;;;;;;17.08;14.25;;;;;;;20.35;85.49;69032.22;4909133;29;20135;-80
2022/08/16 02:58:59;;;;;;;17.13;14.73;;;;;;;20.39;84.75;69036.78;4907844;29;20054;-79
2022/08/16 03:01:27;;;;;;;17.67;15.65;;;;;;;20.36;85.37;69030.09;4903343;29;20033;-79
2022/08/16 03:03:53;;;;;;;18.90;15.30;;;;;;;;;;4906925;29;20099;-80
2022/08/16 03:06:20;;;;;;;28.52;15.27;;;;;;;20.27;85.53;69020.38;4906453;29;20071;-78
2022/08/16 03:08:47;;;;;;;22.20;15.23;;;;;;;20.25;84.95;69020.78;4909134;29;20044;-78
2022/08/16 03:11:13;;;;;;;17.95;15.25;;;;;;;20.21;86.10;69016.22;4904646;29;20032;-81
2022/08/16 03:13:40;;;;;;;17.88;14.02;;;;;;;20.19;85.64;69013.91;4908746;29;20596;-79
2022/08/16 03:16:06;;;;;;;17.45;14.95;;;;;;;20.25;85.14;69026.19;4893068;29;20048;-78
2022/08/16 03:18:31;;;;;;;17.08;15.27;;;;;;;;;;4909013;29;20143;-78
2022/08/16 03:20:58;;;;;;;18.33;14.57;;;;;;;20.17;85.98;69012.22;4908567;29;20503;-78
2022/08/16 03:23:24;;;;;;;17.40;14.65;;;;;;;20.13;85.41;69013.03;4910772;29;20579;-78
2022/08/16 03:25:49;;;;;;;17.25;15.15;;;;;;;;;;4908680;29;20059;-79
2022/08/16 03:28:15;;;;;;;18.02;15.43;;;;;;;20.05;86.27;68998.47;4912392;29;20512;-79
2022/08/16 03:30:40;;;;;;;19.52;15.30;;;;;;;;;;4910044;29;20103;-78
2022/08/16 03:33:05;;;;;;;20.27;16.20;;;;;;;19.99;85.86;68992.19;4910684;29;20411;-80
2022/08/16 03:35:33;;;;;;;19.90;15.07;;;;;;;20.02;85.72;69000.47;4910555;29;20116;-78
2022/08/16 03:38:01;;;;;;;19.42;15.10;;;;;;;20.00;85.63;68992.78;4911706;29;20059;-78
2022/08/16 03:40:26;;;;;;;19.38;15.32;;;;;;;19.98;85.96;68996.47;4910070;29;20071;-79
2022/08/16 03:42:53;;;;;;;16.75;14.00;;;;;;;19.92;86.03;68984.19;4933251;23;20076;-78
2022/08/16 03:45:19;;;;;;;22.15;16.23;;;;;;;19.83;86.62;68982.59;4911659;29;20490;-79
2022/08/16 03:47:46;;;;;;;19.15;16.10;;;;;;;19.79;86.44;68969.34;4919903;29;20044;-78
2022/08/16 03:50:13;;;;;;;19.50;14.90;;;;;;;;;;4915271;29;20113;-78
2022/08/16 03:52:40;;;;;;;18.73;15.55;;;;;;;19.71;87.01;68960.19;4929429;29;20079;-79
2022/08/16 03:55:08;;;;;;;17.30;15.38;;;;;;;19.66;87.38;68954.50;4927246;29;20483;-78
2022/08/16 03:57:34;;;;;;;20.40;15.30;;;;;;;19.59;87.94;68953.00;4925974;29;20051;-78
2022/08/16 03:59:59;;;;;;;18.83;16.60;;;;;;;;;;4927630;29;20051;-78
2022/08/16 04:02:25;;;;;;;19.95;16.10;;;;;;;19.50;88.06;68942.72;4929456;29;20047;-78
2022/08/16 04:04:52;;;;;;;18.88;16.25;;;;;;;;;;4929249;29;20047;-78
2022/08/16 04:07:18;;;;;;;21.38;15.98;;;;;;;19.47;88.30;68933.88;4927626;29;20047;-78
2022/08/16 04:09:44;;;;;;;20.42;16.63;;;;;;;19.46;88.20;68932.75;4929223;29;20047;-78
2022/08/16 04:12:10;;;;;;;19.98;16.40;;;;;;;19.47;88.04;68938.72;4932116;29;20039;-79
2022/08/16 04:14:36;;;;;;;22.05;17.20;;;;;;;19.48;88.42;68931.75;4930822;29;20040;-78
2022/08/16 04:17:03;;;;;;;19.60;16.33;;;;;;;19.43;88.51;68934.16;4929924;29;20040;-79
2022/08/16 04:19:29;;;;;;;19.95;16.60;;;;;;;19.36;88.84;68921.31;4924817;29;20056;-79
2022/08/16 04:21:55;;;;;;;22.65;16.83;;;;;;;19.34;88.82;68919.03;4925455;29;20054;-79
2022/08/16 04:24:20;;;;;;;18.75;16.35;;;;;;;19.30;88.64;68915.03;4926914;29;20040;-77
2022/08/16 04:26:46;;;;;;;22.10;15.68;;;;;;;19.29;89.11;68919.28;4937825;29;20047;-78
2022/08/16 04:29:11;;;;;;;21.52;15.38;;;;;;;;;;4927888;29;20054;-79
2022/08/16 04:31:36;;;;;;;18.75;14.95;;;;;;;;;;4933237;29;20076;-79
2022/08/16 04:34:02;;;;;;;18.88;14.85;;;;;;;19.22;89.32;68910.72;4934256;29;20070;-78
2022/08/16 04:36:28;;;;;;;18.92;15.55;;;;;;;19.20;89.36;68903.63;4932652;29;20036;-78
2022/08/16 04:38:54;;;;;;;17.55;15.15;;;;;;;19.21;89.12;68910.16;4928478;29;20056;-80
2022/08/16 04:41:20;;;;;;;18.17;15.13;;;;;;;19.20;89.73;68903.63;4933022;29;20059;-79
2022/08/16 04:43:46;;;;;;;17.23;13.98;;;;;;;;;;4931343;29;20166;-76
2022/08/16 04:46:13;;;;;;;19.17;14.60;;;;;;;19.17;89.62;68906.16;4933374;29;20086;-79
2022/08/16 04:48:40;;;;;;;18.60;14.93;;;;;;;;;;4933315;29;20111;-80
2022/08/16 04:51:05;;;;;;;17.42;14.45;;;;;;;;;;4933517;29;20064;-79
2022/08/16 04:53:30;;;;;;;18.58;13.63;;;;;;;;;;4934788;29;20040;-78
2022/08/16 04:55:57;;;;;;;16.63;13.43;;;;;;;19.15;89.33;68903.88;4931389;29;20043;-80
2022/08/16 04:58:22;;;;;;;18.35;14.45;;;;;;;;;;4931751;29;20039;-77
2022/08/16 05:00:47;;;;;;;20.52;15.43;;;;;;;19.11;90.18;68891.22;4933269;29;20453;-78
2022/08/16 05:03:12;;;;;;;17.98;14.32;;;;;;;;;;4934082;29;20125;-78
2022/08/16 05:05:40;;;;;;;20.08;14.32;;;;;;;19.15;89.71;68903.88;4932612;29;20035;-79
2022/08/16 05:08:07;;;;;;;16.45;13.93;;;;;;;19.16;89.77;68905.03;4931553;29;20044;-78
2022/08/16 05:10:32;;;;;;;19.70;14.57;;;;;;;;;;4931821;29;20056;-79
2022/08/16 05:12:58;;;;;;;15.68;13.93;;;;;;;19.18;89.82;68901.31;4931969;28;20051;-77
2022/08/16 05:15:24;;;;;;;17.20;13.73;;;;;;;;;;4933541;29;20035;-78
2022/08/16 05:17:50;;;;;;;15.88;13.25;;;;;;;19.19;89.61;68910.00;4933864;29;20040;-79
2022/08/16 05:20:15;;;;;;;18.42;14.20;;;;;;;19.22;89.62;68910.72;4929435;29;20664;-78
2022/08/16 05:22:41;;;;;;;17.90;13.18;;;;;;;19.24;89.67;68907.59;4930272;29;20091;-78
2022/08/16 05:25:12;;;;;;;15.00;13.32;;;;;;;;;;4922689;29;20047;-77
2022/08/16 05:27:39;;;;;;;20.27;13.65;;;;;;;;;;4922787;28;20055;-78
2022/08/16 05:30:06;;;;;;;17.42;13.30;;;;;;;19.26;89.46;68915.31;4929836;29;20119;-79
2022/08/16 05:32:33;;;;;;;16.33;11.93;;;;;;;19.27;89.36;68911.03;4928458;29;20051;-80
2022/08/16 05:34:59;;;;;;;16.27;13.45;;;;;;;19.31;89.41;68915.63;4933007;28;20067;-79
2022/08/16 05:37:24;;;;;;;17.10;13.70;;;;;;;19.35;89.23;68920.75;4944748;28;20071;-77
2022/08/16 05:39:50;;;;;;;16.00;13.20;;;;;;;19.37;89.26;68928.44;4931287;29;20173;-78
2022/08/16 05:42:15;;;;;;;17.23;12.73;;;;;;;19.40;89.01;68925.91;4931222;29;20055;-77
2022/08/16 05:44:41;;;;;;;18.00;12.98;;;;;;;;;;4932294;29;20555;-77
2022/08/16 05:47:06;;;;;;;17.38;12.40;;;;;;;;;;4931528;29;20070;-77
2022/08/16 05:49:32;;;;;;;17.42;13.43;;;;;;;;;;4931634;29;20039;-77
2022/08/16 05:51:58;;;;;;;16.70;13.32;;;;;;;19.55;88.65;68943.03;4930864;29;20051;-77
2022/08/16 05:54:24;;;;;;;15.95;12.80;;;;;;;;;;4928667;29;20046;-77
2022/08/16 05:56:50;;;;;;;16.17;12.32;;;;;;;19.58;88.64;68945.88;4925295;29;20036;-77
2022/08/16 05:59:16;;;;;;;15.40;11.93;;;;;;;;;;4928577;29;20084;-78
2022/08/16 06:01:45;;;;;;;15.60;12.90;;;;;;;19.68;88.44;68956.75;4936569;29;20044;-78
2022/08/16 06:04:12;;;;;;;14.23;12.30;;;;;;;19.71;87.83;68965.59;4938323;29;20539;-78
2022/08/16 06:06:39;;;;;;;15.30;12.55;;;;;;;19.78;87.68;68968.19;4936914;29;20170;-77
2022/08/16 06:09:04;;;;;;;15.30;13.02;;;;;;;;;;4936701;29;20419;-78
2022/08/16 06:11:30;;;;;;;16.00;12.63;;;;;;;19.84;87.22;68975.06;4937161;29;20047;-78
2022/08/16 06:13:56;;;;;;;16.05;12.68;;;;;;;19.92;86.99;68989.03;4937158;29;20090;-78
2022/08/16 06:16:21;;;;;;;17.58;12.68;;;;;;;19.97;86.56;68989.34;4937186;29;20044;-77
2022/08/16 06:18:46;;;;;;;14.13;12.05;;;;;;;20.01;86.12;68999.31;4936309;29;20049;-78
2022/08/16 06:21:13;;;;;;;14.20;11.98;;;;;;;20.04;86.05;68997.91;4939134;29;20163;-78
2022/08/16 06:23:38;;;;;;;12.98;10.90;;;;;;;;;;4937186;29;20258;-77
2022/08/16 06:26:04;;;;;;;14.23;12.40;;;;;;;20.12;85.43;69005.94;4936886;29;20051;-77
2022/08/16 06:28:30;;;;;;;17.08;11.77;;;;;;;20.18;85.80;69012.78;4936527;29;20109;-76
2022/08/16 06:30:56;;;;;;;15.27;11.90;;;;;;;20.23;85.69;69024.47;4936105;29;20127;-78
2022/08/16 06:33:21;;;;;;;13.45;12.05;;;;;;;20.25;85.73;69021.38;4935074;29;20032;-77
2022/08/16 06:35:48;;;;;;;18.23;11.82;;;;;;;20.32;84.59;69026.09;4928419;29;20521;-77
2022/08/16 06:38:13;;;;;;;15.82;11.45;;;;;;;;;;4931952;29;20047;-77
2022/08/16 06:40:38;;;;;;;14.00;12.18;;;;;;;;;;4925156;29;20044;-77
2022/08/16 06:43:04;;;;;;;12.63;11.10;;;;;;;20.44;84.57;69042.50;4929236;29;20088;-77
2022/08/16 06:45:30;;;;;;;16.80;12.40;;;;;;;20.56;84.00;69061.09;4928696;29;20043;-77
2022/08/16 06:47:55;;;;;;;14.48;10.88;;;;;;;20.59;83.51;69056.41;4929481;29;20042;-77
2022/08/16 06:50:21;;;;;;;14.45;12.13;;;;;;;;;;4929790;29;20043;-78
2022/08/16 06:52:46;;;;;;;15.85;12.13;;;;;;;20.78;83.41;69085.69;4929134;29;20044;-78
2022/08/16 06:55:12;;;;;;;16.27;12.05;;;;;;;;;;4930682;29;20093;-78
2022/08/16 06:57:38;;;;;;;16.25;11.45;;;;;;;20.77;82.75;69079.13;4930517;29;20130;-77
2022/08/16 07:00:12;;;;;;;15.95;13.30;;;;;;;20.84;83.15;69087.13;4925043;29;20126;-78
2022/08/16 07:02:41;;;;;;;17.20;13.30;;;;;;;;;;4924634;29;20515;-78
2022/08/16 07:05:08;;;;;;;16.13;13.20;;;;;;;21.00;82.39;69104.28;4930540;29;20043;-78
2022/08/16 07:07:34;;;;;;;15.98;12.52;;;;;;;;;;4929964;29;20047;-77
2022/08/16 07:09:59;;;;;;;14.50;12.38;;;;;;;;;;4929405;29;20059;-78
2022/08/16 07:12:25;;;;;;;14.80;12.70;;;;;;;21.25;81.08;69127.47;4941241;29;20483;-77
2022/08/16 07:14:50;;;;;;;15.50;12.27;;;;;;;21.27;81.22;69135.19;4930078;29;20044;-78
2022/08/16 07:17:17;;;;;;;15.90;12.57;;;;;;;21.37;80.68;69143.94;4929457;28;20043;-78
2022/08/16 07:19:43;;;;;;;15.80;12.50;;;;;;;21.45;80.87;69154.66;4929526;29;20701;-77
2022/08/16 07:22:09;;;;;;;15.23;12.52;;;;;;;21.55;80.40;69166.09;4932447;29;20134;-78
2022/08/16 07:24:34;;;;;;;16.55;12.43;;;;;;;21.63;79.96;69172.53;4935995;29;20087;-78
2022/08/16 07:27:00;;;;;;;15.27;12.90;;;;;;;21.75;79.08;69186.28;4935767;29;20046;-76
2022/08/16 07:29:27;;;;;;;17.45;13.80;;;;;;;21.76;79.22;69189.56;4936250;29;20407;-77
2022/08/16 07:31:52;;;;;;;15.27;12.25;;;;;;;21.86;78.98;69201.56;4936823;29;20106;-76
2022/08/16 07:34:18;;;;;;;14.52;12.90;;;;;;;;;;4937551;29;20036;-78
2022/08/16 07:36:44;;;;;;;16.02;12.68;;;;;;;22.02;78.42;69219.31;4935284;29;20043;-78
2022/08/16 07:39:10;;;;;;;14.63;12.10;;;;;;;;;;4935149;29;20062;-78
2022/08/16 07:41:35;;;;;;;15.85;12.73;;;;;;;22.23;77.95;69242.81;4937560;29;20044;-77
2022/08/16 07:44:01;;;;;;;15.60;12.75;;;;;;;22.25;77.58;69245.09;4935211;29;20345;-78
2022/08/16 07:46:26;;;;;;;17.90;13.27;;;;;;;22.32;76.22;69251.97;4938106;29;20450;-76
2022/08/16 07:48:52;;;;;;;17.48;13.95;;;;;;;22.40;76.77;69261.69;4936418;29;20388;-78
2022/08/16 07:51:17;;;;;;;16.52;12.68;;;;;;;22.56;76.08;69279.47;4952230;29;20046;-78
2022/08/16 07:53:44;;;;;;;15.10;13.18;;;;;;;22.61;75.91;69285.16;4936866;29;20047;-78
2022/08/16 07:56:09;;;;;;;16.05;12.15;;;;;;;22.74;76.43;69300.06;4935658;29;20062;-78
2022/08/16 07:58:35;;;;;;;15.57;13.75;;;;;;;22.85;75.14;69311.53;4936915;29;20044;-78
2022/08/16 08:01:00;;;;;;;16.45;13.55;;;;;;;22.88;74.66;69314.97;4936023;29;20570;-77
2022/08/16 08:03:27;;;;;;;13.70;12.25;;;;;;;23.04;74.63;69330.00;4937391;29;20043;-79
2022/08/16 08:05:52;;;;;;;17.38;13.48;;;;;;;23.09;73.02;69338.47;4936184;29;20051;-76
2022/08/16 08:08:18;;;;;;;14.98;12.48;;;;;;;23.16;73.47;69344.34;4932100;29;20063;-78
2022/08/16 08:10:43;;;;;;;13.23;11.18;;;;;;;23.20;72.93;69351.63;4929293;29;20044;-77
2022/08/16 08:13:08;;;;;;;14.38;11.90;;;;;;;23.28;72.98;69359.66;4924828;29;20083;-78
2022/08/16 08:15:34;;;;;;;16.70;11.07;;;;;;;;;;4931308;29;20090;-77
2022/08/16 08:18:01;;;;;;;14.20;11.23;;;;;;;23.51;71.22;69386.03;4935401;29;20142;-78
2022/08/16 08:20:27;;;;;;;10.80;9.55;;;;;;;23.67;70.79;69403.22;4937855;29;20040;-78
2022/08/16 08:22:55;;;;;;;15.05;11.70;;;;;;;23.72;70.12;69408.97;4931245;29;20567;-79
2022/08/16 08:25:21;;;;;;;13.60;10.35;;;;;;;23.87;69.08;69426.72;4929188;29;20071;-78
2022/08/16 08:27:46;;;;;;;13.80;11.13;;;;;;;23.82;68.53;69425.84;4928057;29;20067;-78
2022/08/16 08:30:13;;;;;;;14.15;10.52;;;;;;;23.80;69.20;69415.41;4930035;29;20470;-78
2022/08/16 08:32:39;;;;;;;13.60;10.95;;;;;;;23.94;68.32;69428.75;4929318;29;20044;-77
2022/08/16 08:35:05;;;;;;;14.07;10.60;;;;;;;;;;4944506;29;20076;-78
2022/08/16 08:37:35;;;;;;;13.27;10.38;;;;;;;24.11;67.27;69453.09;4928382;29;20122;-77
2022/08/16 08:40:03;;;;;;;11.65;9.98;;;;;;;24.22;67.03;69459.69;4933039;29;20488;-78
2022/08/16 08:42:29;;;;;;;13.07;10.57;;;;;;;24.35;66.72;69477.31;4935351;29;20062;-79
2022/08/16 08:44:54;;;;;;;10.23;9.05;;;;;;;24.45;65.77;69488.22;4935460;29;20087;-78
2022/08/16 08:47:19;;;;;;;12.73;9.05;;;;;;;24.57;65.20;69499.28;4930483;29;20044;-77
2022/08/16 08:49:45;;;;;;;11.93;8.43;;;;;;;24.62;64.51;69507.16;4929274;29;20180;-78
2022/08/16 08:52:11;;;;;;;11.63;8.57;;;;;;;24.59;64.33;69501.00;4935390;29;20071;-78
2022/08/16 08:54:37;;;;;;;9.48;8.27;;;;;;;24.85;64.29;69530.81;4930648;29;20048;-77
2022/08/16 08:57:04;;;;;;;11.38;9.43;;;;;;;24.93;63.10;69544.84;4933135;29;20044;-77
2022/08/16 08:59:30;;;;;;;13.35;9.10;;;;;;;24.88;63.35;69539.69;4934528;29;20084;-78
2022/08/16 09:01:56;;;;;;;12.23;8.75;;;;;;;24.88;63.14;69534.25;4937444;29;20043;-78
2022/08/16 09:04:22;;;;;;;12.55;8.68;;;;;;;24.97;63.25;69550.03;4929319;29;20983;-78
2022/08/16 09:06:47;;;;;;;9.98;8.30;;;;;;;25.04;62.14;69551.47;4933238;29;20114;-78
2022/08/16 09:09:13;;;;;;;9.90;7.80;;;;;;;25.10;62.29;69561.06;4935680;29;20050;-77
2022/08/16 09:11:41;;;;;;;13.13;8.00;;;;;;;25.19;62.04;69571.41;4937810;29;20066;-77
2022/08/16 09:14:07;;;;;;;8.95;7.50;;;;;;;25.31;62.00;69585.16;4938575;29;20039;-78
2022/08/16 09:16:33;;;;;;;10.35;8.20;;;;;;;25.39;61.49;69591.63;4937430;29;20059;-77
2022/08/16 09:18:59;;;;;;;9.90;8.15;;;;;;;25.39;61.22;69596.50;4937397;29;20427;-78
2022/08/16 09:21:25;;;;;;;12.07;8.15;;;;;;;25.41;61.60;69598.81;4938810;29;20103;-78
2022/08/16 09:23:51;;;;;;;11.10;7.68;;;;;;;25.62;60.81;69619.59;4939037;29;20637;-79
2022/08/16 09:26:16;;;;;;;11.38;7.88;;;;;;;25.70;59.32;69630.94;4937261;29;20131;-78
2022/08/16 09:28:43;;;;;;;8.32;7.53;;;;;;;25.70;59.30;69626.06;4931965;29;20103;-78
2022/08/16 09:31:09;;;;;;;10.05;7.30;;;;;;;25.75;59.38;69631.81;4932577;29;20040;-78
2022/08/16 09:33:35;;;;;;;10.05;7.43;;;;;;;25.82;59.25;69645.31;4933925;29;20132;-77
2022/08/16 09:36:00;;;;;;;9.18;7.72;;;;;;;25.75;58.13;69634.53;4931935;29;20135;-78
2022/08/16 09:38:26;;;;;;;11.77;8.00;;;;;;;25.82;58.58;69636.53;4934773;29;20063;-78
2022/08/16 09:40:54;;;;;;;9.68;7.82;;;;;;;25.88;58.53;69648.88;4935738;29;20044;-78
2022/08/16 09:43:20;;;;;;;8.77;6.82;;;;;;;25.94;57.92;69655.19;4978777;23;20059;-80
2022/08/16 09:45:46;;;;;;;11.38;8.07;;;;;;;26.02;57.32;69664.38;4953392;28;20039;-81
2022/08/16 09:48:13;;;;;;;11.38;7.68;;;;;;;26.11;57.17;69677.44;4953308;28;20058;-80
2022/08/16 09:50:42;;;;;;;11.20;6.82;;;;;;;26.20;57.29;69687.78;4955594;28;20402;-81
2022/08/16 09:53:16;;;;;;;8.80;6.50;;;;;;;26.19;56.00;69686.63;4954614;28;20043;-80
2022/08/16 09:55:45;;;;;;;9.18;7.00;;;;;;;26.16;56.38;69677.16;4937028;29;20047;-80
2022/08/16 09:58:11;;;;;;;10.80;7.53;;;;;;;26.28;57.64;69694.22;4934839;29;20055;-77
2022/08/16 10:00:36;;;;;;;7.78;6.95;;;;;;;;;;4934816;29;20112;-80
2022/08/16 10:03:04;;;;;;;11.25;7.50;;;;;;;26.53;55.99;69724.56;4948598;28;20654;-81
2022/08/16 10:05:31;;;;;;;9.02;6.70;;;;;;;26.69;55.81;69739.59;4943137;28;20048;-77
2022/08/16 10:07:57;;;;;;;10.27;6.38;;;;;;;26.72;55.10;69740.88;4939902;29;20203;-79
2022/08/16 10:10:23;;;;;;;10.15;6.68;;;;;;;26.72;54.97;69740.31;4939006;29;20705;-80
2022/08/16 10:15:34;;;;;;;10.05;6.70;;;;;;;26.83;54.73;69750.22;4939834;29;20043;-81
2022/08/16 10:18:00;;;;;;;9.48;6.60;;;;;;;27.05;53.49;69774.34;4941138;28;21013;-81
2022/08/16 10:20:27;;;;;;;9.27;6.60;;;;;;;27.04;53.63;69781.97;4944846;28;20039;-80
2022/08/16 10:22:53;;;;;;;7.90;6.50;;;;;;;27.07;52.52;69785.41;4933157;29;20111;-77
2022/08/16 10:25:19;;;;;;;10.48;7.03;;;;;;;27.15;53.40;69791.88;4935752;29;20035;-80
2022/08/16 10:27:46;;;;;;;8.40;6.75;;;;;;;27.18;52.36;69792.59;4934211;29;20043;-81
2022/08/16 10:30:13;;;;;;;7.40;6.47;;;;;;;27.22;54.13;69802.09;4938794;29;20051;-79
2022/08/16 10:32:39;;;;;;;10.15;6.60;;;;;;;27.39;52.32;69815.56;4940861;28;20036;-81
2022/08/16 10:35:04;;;;;;;9.27;6.57;;;;;;;27.36;51.83;69817.59;4938427;28;20091;-80
2022/08/16 10:37:30;;;;;;;8.88;6.32;;;;;;;27.32;52.47;69808.13;4935640;29;20422;-79
2022/08/16 10:39:55;;;;;;;7.97;7.15;;;;;;;27.38;51.15;69814.44;4928731;29;20043;-81
2022/08/16 10:42:21;;;;;;;10.57;7.03;;;;;;;27.32;52.74;69810.28;4933670;29;20044;-79
2022/08/16 10:44:47;;;;;;;8.57;5.95;;;;;;;27.59;53.91;69841.31;4933736;29;20058;-79
2022/08/16 10:47:13;;;;;;;7.00;6.05;;;;;;;27.81;51.08;69863.28;4934553;29;20040;-81
2022/08/16 10:49:39;;;;;;;8.50;6.00;;;;;;;27.93;51.83;69876.50;4939393;28;20051;-78
2022/08/16 10:52:05;;;;;;;9.80;6.00;;;;;;;27.97;50.37;69883.84;4941622;29;20455;-79
2022/08/16 10:54:31;;;;;;;8.68;5.90;;;;;;;27.97;51.05;69880.53;4940652;28;20195;-81
2022/08/16 10:56:59;;;;;;;8.45;6.43;;;;;;;27.94;50.25;69879.81;4941882;29;20077;-79
2022/08/16 10:59:24;;;;;;;7.10;5.90;;;;;;;27.85;49.78;69870.03;4922041;29;20546;-81
2022/08/16 11:01:50;;;;;;;7.20;5.70;;;;;;;27.93;49.12;69881.97;4934027;29;20283;-81
2022/08/16 11:04:16;;;;;;;8.05;5.90;;;;;;;28.08;49.51;69896.50;4937723;28;20398;-78
2022/08/16 11:06:41;;;;;;;8.07;6.45;;;;;;;27.97;48.89;69883.28;4935141;29;20044;-80
2022/08/16 11:09:07;;;;;;;7.63;5.93;;;;;;;27.92;48.10;69880.25;4933897;29;20507;-79
2022/08/16 11:11:32;;;;;;;10.10;5.70;;;;;;;27.97;48.09;69883.84;4935731;29;20044;-81
2022/08/16 11:13:57;;;;;;;8.93;6.05;;;;;;;27.72;47.28;69847.44;4932072;29;20126;-80
2022/08/16 11:16:23;;;;;;;8.10;5.70;;;;;;;27.68;47.88;69851.06;4932240;29;20058;-78
2022/08/16 11:18:48;;;;;;;8.88;6.05;;;;;;;27.98;46.61;69881.69;4934801;28;20068;-78
2022/08/16 11:21:14;;;;;;;8.68;5.30;;;;;;;28.10;46.43;69900.94;4925301;28;20043;-80
2022/08/16 11:23:40;;;;;;;9.48;5.90;;;;;;;28.04;46.96;69888.56;4931194;28;20131;-80
2022/08/16 11:26:06;;;;;;;7.35;5.90;;;;;;;28.06;46.37;69893.63;4925171;29;20138;-80
2022/08/16 11:28:33;;;;;;;8.85;5.60;;;;;;;28.09;47.21;69891.59;4929040;28;20035;-80
2022/08/16 11:30:59;;;;;;;8.02;5.47;;;;;;;28.48;47.21;69940.75;4930402;29;20114;-80
2022/08/16 11:33:24;;;;;;;6.63;5.82;;;;;;;28.69;46.60;69958.88;4926981;29;20047;-81
2022/08/16 11:35:50;;;;;;;8.55;6.20;;;;;;;28.44;46.94;69938.91;4929964;29;20040;-80
2022/08/16 11:38:19;;;;;;;7.43;6.65;;;;;;;28.35;48.38;69924.22;4936596;28;20106;-81
2022/08/16 11:40:56;;;;;;;8.52;6.18;;;;;;;28.40;48.10;69929.38;4934255;28;20610;-80
2022/08/16 11:43:30;;;;;;;7.32;6.38;;;;;;;28.35;47.30;69924.22;4926722;29;20495;-80
2022/08/16 11:45:59;;;;;;;9.50;7.03;;;;;;;28.21;47.10;69908.13;4940951;28;20060;-81
2022/08/16 11:48:27;;;;;;;7.10;6.40;;;;;;;28.06;48.55;69888.72;4932436;29;20083;-80
2022/08/16 11:50:53;;;;;;;8.10;6.30;;;;;;;28.24;46.78;69911.56;4930224;29;20047;-82